createdAt,value
2019-04-04T00:02:37.225Z,2.81
2019-04-04T00:08:00.095Z,2.71
2019-04-04T00:13:24.700Z,2.69
2019-04-04T00:18:47.865Z,2.65
2019-04-04T00:24:10.229Z,2.46
2019-04-04T00:29:32.218Z,2.42
2019-04-04T00:34:53.748Z,2.41
2019-04-04T00:40:17.429Z,2.36
2019-04-04T00:45:38.519Z,2.31
2019-04-04T00:51:00.691Z,2.22
2019-04-04T00:56:21.970Z,2.20
2019-04-04T01:01:44.520Z,2.24
2019-04-04T01:07:06.172Z,2.21
2019-04-04T01:12:32.282Z,2.18
2019-04-04T01:17:53.531Z,2.15
2019-04-04T01:23:15.405Z,2.15
2019-04-04T01:28:37.097Z,2.17
2019-04-04T01:34:01.332Z,2.19
2019-04-04T01:39:22.977Z,2.14
2019-04-04T01:44:44.499Z,2.09
2019-04-04T01:50:07.547Z,2.11
2019-04-04T01:55:29.398Z,2.11
2019-04-04T02:00:52.211Z,2.09
2019-04-04T02:06:13.701Z,2.00
2019-04-04T02:11:37.450Z,2.10
2019-04-04T02:16:59.077Z,1.98
2019-04-04T02:22:23.514Z,2.04
2019-04-04T02:27:45.279Z,2.12
2019-04-04T02:33:09.059Z,2.00
2019-04-04T02:38:30.808Z,2.02
2019-04-04T02:43:52.416Z,2.16
2019-04-04T02:49:13.656Z,2.04
2019-04-04T02:54:35.194Z,2.02
2019-04-04T02:59:56.988Z,2.03
2019-04-04T03:05:19.986Z,2.12
2019-04-04T03:10:42.788Z,2.06
2019-04-04T03:16:06.784Z,1.91
2019-04-04T03:21:28.559Z,2.01
2019-04-04T03:26:52.772Z,1.99
2019-04-04T03:32:16.247Z,1.90
2019-04-04T03:37:40.539Z,1.81
2019-04-04T03:43:01.178Z,1.91
2019-04-04T03:48:23.014Z,1.95
2019-04-04T03:53:51.608Z,1.83
2019-04-04T03:59:14.681Z,1.81
2019-04-04T04:04:36.242Z,1.86
2019-04-04T04:09:59.718Z,1.78
2019-04-04T04:15:21.576Z,1.79
2019-04-04T04:20:47.032Z,1.82
2019-04-04T04:26:09.578Z,1.90
2019-04-04T04:31:32.053Z,2.03
2019-04-04T04:36:53.871Z,2.03
2019-04-04T04:42:15.458Z,2.24
2019-04-04T04:47:37.095Z,2.38
2019-04-04T04:53:00.779Z,2.43
2019-04-04T04:58:22.958Z,2.64
2019-04-04T05:03:44.188Z,2.60
2019-04-04T05:09:06.494Z,2.65
2019-04-04T05:14:29.778Z,2.83
2019-04-04T05:19:51.560Z,3.01
2019-04-04T05:25:14.320Z,3.06
2019-04-04T05:30:35.889Z,3.18
2019-04-04T05:35:58.283Z,3.38
2019-04-04T05:41:20.927Z,3.61
2019-04-04T05:46:42.774Z,3.81
2019-04-04T05:52:04.263Z,4.03
2019-04-04T05:57:26.009Z,4.27
2019-04-04T06:02:48.519Z,4.54
2019-04-04T06:08:10.136Z,4.74
2019-04-04T06:13:31.512Z,5.06
2019-04-04T06:18:56.401Z,5.48
2019-04-04T06:24:17.973Z,5.87
2019-04-04T06:29:39.928Z,6.10
2019-04-04T06:35:01.471Z,6.36
2019-04-04T06:40:28.125Z,6.52
2019-04-04T06:45:51.661Z,6.83
2019-04-04T06:51:14.352Z,7.12
2019-04-04T06:56:36.975Z,7.32
2019-04-04T07:01:58.659Z,7.45
2019-04-04T07:07:20.843Z,7.39
2019-04-04T07:12:42.988Z,7.42
2019-04-04T07:18:04.305Z,7.65
2019-04-04T07:23:28.523Z,7.71
2019-04-04T07:28:53.925Z,7.84
2019-04-04T07:34:15.655Z,7.86
2019-04-04T07:39:37.427Z,8.10
2019-04-04T07:44:58.887Z,8.28
2019-04-04T07:50:20.496Z,7.91
2019-04-04T07:55:42.271Z,8.39
2019-04-04T08:01:05.695Z,8.34
2019-04-04T08:06:27.603Z,8.54
2019-04-04T08:11:50.145Z,8.69
2019-04-04T08:17:11.949Z,8.77
2019-04-04T08:22:33.491Z,8.63
2019-04-04T08:27:54.743Z,8.95
2019-04-04T08:33:16.719Z,8.99
2019-04-04T08:38:39.289Z,9.27
2019-04-04T08:44:01.526Z,9.37
2019-04-04T08:49:24.016Z,9.28
2019-04-04T08:54:45.512Z,9.07
2019-04-04T09:00:09.868Z,9.44
2019-04-04T09:05:31.758Z,9.55
2019-04-04T09:10:53.434Z,9.76
2019-04-04T09:16:15.345Z,9.54
2019-04-04T09:21:37.353Z,9.77
2019-04-04T09:26:59.149Z,9.99
2019-04-04T09:32:20.889Z,9.91
2019-04-04T09:37:42.997Z,10.53
2019-04-04T09:43:04.994Z,10.49
2019-04-04T09:48:26.639Z,11.13
2019-04-04T09:53:53.181Z,11.31
2019-04-04T09:59:13.708Z,11.09
2019-04-04T10:04:36.420Z,10.67
2019-04-04T10:09:58.646Z,10.68
2019-04-04T10:15:20.200Z,10.56
2019-04-04T10:20:42.062Z,10.65
2019-04-04T10:26:03.833Z,10.54
2019-04-04T10:31:25.934Z,10.96
2019-04-04T10:36:47.596Z,11.16
2019-04-04T10:42:09.284Z,11.33
2019-04-04T10:47:30.658Z,11.15
2019-04-04T10:52:52.870Z,11.33
2019-04-04T10:58:15.687Z,11.73
2019-04-04T11:03:37.529Z,12.26
2019-04-04T11:08:59.014Z,12.42
2019-04-04T11:14:20.536Z,12.52
2019-04-04T11:19:43.549Z,12.62
2019-04-04T11:25:05.971Z,12.37
2019-04-04T11:30:27.727Z,12.66
2019-04-04T11:35:49.958Z,13.16
2019-04-04T11:41:11.915Z,13.65
2019-04-04T11:46:33.404Z,13.68
2019-04-04T11:51:55.335Z,13.41
2019-04-04T11:57:16.646Z,13.21
2019-04-04T12:02:39.874Z,13.52
2019-04-04T12:08:01.781Z,13.39
2019-04-04T12:13:23.426Z,13.54
2019-04-04T12:18:44.961Z,13.27
2019-04-04T12:24:06.719Z,13.26
2019-04-04T12:29:28.837Z,13.38
2019-04-04T12:34:51.010Z,13.36
2019-04-04T12:40:20.392Z,13.44
2019-04-04T12:45:36.846Z,13.45
2019-04-04T12:51:01.187Z,13.87
2019-04-04T12:56:22.499Z,14.00
2019-04-04T13:01:44.249Z,14.09
2019-04-04T13:07:05.685Z,13.98
2019-04-04T13:12:27.652Z,13.77
2019-04-04T13:17:49.603Z,13.86
2019-04-04T13:23:14.546Z,13.87
2019-04-04T13:28:36.148Z,13.69
2019-04-04T13:33:59.168Z,13.87
2019-04-04T13:39:22.080Z,14.03
2019-04-04T13:44:45.004Z,13.91
2019-04-04T13:50:08.733Z,13.98
2019-04-04T13:55:31.019Z,13.97
2019-04-04T14:00:53.352Z,13.93
2019-04-04T14:06:14.888Z,14.13
2019-04-04T14:11:40.908Z,14.28
2019-04-04T14:17:01.401Z,14.02
2019-04-04T14:22:23.445Z,13.87
2019-04-04T14:27:46.823Z,14.04
2019-04-04T14:33:08.678Z,13.86
2019-04-04T14:38:31.296Z,14.05
2019-04-04T14:43:53.987Z,14.11
2019-04-04T14:49:18.514Z,14.10
2019-04-04T14:54:40.367Z,13.96
2019-04-04T15:00:04.208Z,13.79
2019-04-04T15:05:26.192Z,13.61
2019-04-04T15:10:49.177Z,13.47
2019-04-04T15:16:16.184Z,13.10
2019-04-04T15:21:40.959Z,13.33
2019-04-04T15:27:03.032Z,13.69
2019-04-04T15:32:27.299Z,13.41
2019-04-04T15:37:51.499Z,12.99
2019-04-04T15:43:13.434Z,12.76
2019-04-04T15:48:35.430Z,12.39
2019-04-04T15:53:57.953Z,11.87
2019-04-04T15:59:20.163Z,11.39
2019-04-04T16:04:43.053Z,10.89
2019-04-04T16:10:05.223Z,10.52
2019-04-04T16:15:27.718Z,10.39
2019-04-04T16:20:51.666Z,10.30
2019-04-04T16:26:14.178Z,10.12
2019-04-04T16:31:36.475Z,9.88
2019-04-04T16:36:59.543Z,9.73
2019-04-04T16:42:21.869Z,9.36
2019-04-04T16:47:45.216Z,9.32
2019-04-04T16:53:08.041Z,9.19
2019-04-04T16:58:30.162Z,8.96
2019-04-04T17:04:01.568Z,8.79
2019-04-04T17:09:16.848Z,8.66
2019-04-04T17:14:39.808Z,8.42
2019-04-04T17:20:03.099Z,8.22
2019-04-04T17:25:26.192Z,8.02
2019-04-04T17:30:49.592Z,8.02
2019-04-04T17:36:11.904Z,7.79
2019-04-04T17:41:33.745Z,7.70
2019-04-04T17:46:56.308Z,7.60
2019-04-04T17:52:18.425Z,7.54
2019-04-04T17:57:40.197Z,7.53
2019-04-04T18:03:02.972Z,7.52
2019-04-04T18:08:26.161Z,7.40
2019-04-04T18:13:49.600Z,7.44
2019-04-04T18:19:12.058Z,7.32
2019-04-04T18:24:35.512Z,6.93
2019-04-04T18:29:58.463Z,7.19
2019-04-04T18:35:19.861Z,7.19
2019-04-04T18:40:43.810Z,7.11
2019-04-04T18:46:05.974Z,7.06
2019-04-04T18:51:28.996Z,6.98
2019-04-04T18:56:51.117Z,6.97
2019-04-04T19:02:14.984Z,6.69
2019-04-04T19:07:39.448Z,6.44
2019-04-04T19:13:05.534Z,6.27
2019-04-04T19:18:30.473Z,6.29
2019-04-04T19:23:52.984Z,6.07
2019-04-04T19:29:15.712Z,5.94
2019-04-04T19:34:37.287Z,5.65
2019-04-04T19:40:00.199Z,5.66
2019-04-04T19:45:21.624Z,5.51
2019-04-04T19:50:46.044Z,5.29
2019-04-04T19:56:08.891Z,5.03
2019-04-04T20:01:32.298Z,5.03
2019-04-04T20:06:54.466Z,5.17
2019-04-04T20:12:15.885Z,4.93
2019-04-04T20:17:37.738Z,4.91
2019-04-04T20:22:59.342Z,4.87
2019-04-04T20:28:23.518Z,4.78
2019-04-04T20:33:45.339Z,4.68
2019-04-04T20:39:07.264Z,4.71
2019-04-04T20:44:29.771Z,4.62
2019-04-04T20:49:52.216Z,4.46
2019-04-04T20:55:14.209Z,4.42
2019-04-04T21:00:37.069Z,4.31
2019-04-04T21:05:58.707Z,4.23
2019-04-04T21:11:20.623Z,4.37
2019-04-04T21:16:43.858Z,4.35
2019-04-04T21:22:06.775Z,4.23
2019-04-04T21:27:28.289Z,4.16
2019-04-04T21:32:50.308Z,4.11
2019-04-04T21:38:12.209Z,3.85
2019-04-04T21:43:34.471Z,3.97
2019-04-04T21:48:56.471Z,4.08
2019-04-04T21:54:18.290Z,4.09
2019-04-04T21:59:40.922Z,4.01
2019-04-04T22:05:02.801Z,4.09
2019-04-04T22:10:33.133Z,4.14
2019-04-04T22:15:57.553Z,4.08
2019-04-04T22:21:23.272Z,3.97
2019-04-04T22:27:05.976Z,4.03
2019-04-04T22:32:29.553Z,3.97
2019-04-04T22:37:52.482Z,3.95
2019-04-04T22:43:17.929Z,3.85
2019-04-04T22:48:39.674Z,3.76
2019-04-04T22:54:05.042Z,3.59
2019-04-04T22:59:36.091Z,3.61
2019-04-04T23:04:58.590Z,3.41
2019-04-04T23:10:23.444Z,3.39
2019-04-04T23:15:47.039Z,3.39
2019-04-04T23:21:11.700Z,3.19
2019-04-04T23:26:35.989Z,3.17
2019-04-04T23:32:00.349Z,3.17
2019-04-04T23:37:22.533Z,3.25
2019-04-04T23:42:46.126Z,3.18
2019-04-04T23:48:12.825Z,3.11
2019-04-04T23:53:35.810Z,2.97
2019-04-04T23:58:57.608Z,3.02
